sensor_id;sensor_type;location;lat;lon;timestamp;P1;durP1;ratioP1;P2;durP2;ratioP2
41259;SDS011;26993;48.958;9.330;2022-11-20T00:00:06;25.67;;;11.20;;
41259;SDS011;26993;48.958;9.330;2022-11-20T00:02:54;27.03;;;12.77;;
41259;SDS011;26993;48.958;9.330;2022-11-20T00:05:42;26.30;;;12.30;;
41259;SDS011;26993;48.958;9.330;2022-11-20T00:08:29;31.80;;;13.50;;
41259;SDS011;26993;48.958;9.330;2022-11-20T00:11:16;31.03;;;13.47;;
41259;SDS011;26993;48.958;9.330;2022-11-20T00:14:03;28.60;;;13.10;;
41259;SDS011;26993;48.958;9.330;2022-11-20T00:16:50;25.83;;;12.47;;
41259;SDS011;26993;48.958;9.330;2022-11-20T00:19:37;28.17;;;13.30;;
41259;SDS011;26993;48.958;9.330;2022-11-20T00:22:25;32.03;;;13.57;;
41259;SDS011;26993;48.958;9.330;2022-11-20T00:25:11;28.83;;;12.87;;
41259;SDS011;26993;48.958;9.330;2022-11-20T00:27:58;29.73;;;14.20;;
41259;SDS011;26993;48.958;9.330;2022-11-20T00:30:45;27.37;;;14.07;;
41259;SDS011;26993;48.958;9.330;2022-11-20T00:33:32;27.70;;;14.00;;
41259;SDS011;26993;48.958;9.330;2022-11-20T00:36:19;26.97;;;13.33;;
41259;SDS011;26993;48.958;9.330;2022-11-20T00:39:09;30.17;;;14.33;;
41259;SDS011;26993;48.958;9.330;2022-11-20T00:41:55;28.50;;;15.03;;
41259;SDS011;26993;48.958;9.330;2022-11-20T00:44:42;30.53;;;14.20;;
41259;SDS011;26993;48.958;9.330;2022-11-20T00:47:29;29.77;;;14.57;;
41259;SDS011;26993;48.958;9.330;2022-11-20T00:50:15;28.60;;;13.67;;
41259;SDS011;26993;48.958;9.330;2022-11-20T00:53:02;28.87;;;12.83;;
41259;SDS011;26993;48.958;9.330;2022-11-20T00:55:54;25.37;;;12.50;;
41259;SDS011;26993;48.958;9.330;2022-11-20T00:58:42;27.43;;;12.93;;
41259;SDS011;26993;48.958;9.330;2022-11-20T01:01:30;26.30;;;13.00;;
41259;SDS011;26993;48.958;9.330;2022-11-20T01:04:17;28.50;;;13.00;;
41259;SDS011;26993;48.958;9.330;2022-11-20T01:07:03;39.33;;;16.43;;
41259;SDS011;26993;48.958;9.330;2022-11-20T01:09:50;34.07;;;14.47;;
41259;SDS011;26993;48.958;9.330;2022-11-20T01:12:38;41.33;;;14.80;;
41259;SDS011;26993;48.958;9.330;2022-11-20T01:15:25;30.43;;;13.50;;
41259;SDS011;26993;48.958;9.330;2022-11-20T01:18:11;34.47;;;15.83;;
41259;SDS011;26993;48.958;9.330;2022-11-20T01:21:00;37.10;;;15.13;;
41259;SDS011;26993;48.958;9.330;2022-11-20T01:23:48;34.63;;;15.17;;
41259;SDS011;26993;48.958;9.330;2022-11-20T01:26:36;29.40;;;14.50;;
41259;SDS011;26993;48.958;9.330;2022-11-20T01:29:25;27.07;;;14.67;;
41259;SDS011;26993;48.958;9.330;2022-11-20T01:32:12;22.73;;;12.97;;
41259;SDS011;26993;48.958;9.330;2022-11-20T01:34:59;29.10;;;14.57;;
41259;SDS011;26993;48.958;9.330;2022-11-20T01:37:45;26.30;;;14.03;;
41259;SDS011;26993;48.958;9.330;2022-11-20T01:40:32;25.17;;;13.27;;
41259;SDS011;26993;48.958;9.330;2022-11-20T01:43:19;29.97;;;13.77;;
41259;SDS011;26993;48.958;9.330;2022-11-20T01:46:14;27.47;;;13.33;;
41259;SDS011;26993;48.958;9.330;2022-11-20T01:49:03;26.03;;;12.90;;
41259;SDS011;26993;48.958;9.330;2022-11-20T01:51:55;24.97;;;12.93;;
41259;SDS011;26993;48.958;9.330;2022-11-20T01:54:46;25.07;;;13.57;;
41259;SDS011;26993;48.958;9.330;2022-11-20T01:57:38;27.57;;;14.20;;
41259;SDS011;26993;48.958;9.330;2022-11-20T02:00:26;26.00;;;13.90;;
41259;SDS011;26993;48.958;9.330;2022-11-20T02:03:15;29.77;;;14.17;;
41259;SDS011;26993;48.958;9.330;2022-11-20T02:06:06;35.63;;;15.17;;
41259;SDS011;26993;48.958;9.330;2022-11-20T02:08:58;31.60;;;14.20;;
41259;SDS011;26993;48.958;9.330;2022-11-20T02:11:45;30.13;;;14.70;;
41259;SDS011;26993;48.958;9.330;2022-11-20T02:14:32;31.23;;;14.87;;
41259;SDS011;26993;48.958;9.330;2022-11-20T02:17:18;31.40;;;16.03;;
41259;SDS011;26993;48.958;9.330;2022-11-20T02:20:06;37.70;;;16.57;;
41259;SDS011;26993;48.958;9.330;2022-11-20T02:22:55;34.27;;;15.50;;
41259;SDS011;26993;48.958;9.330;2022-11-20T02:25:47;30.93;;;14.63;;
41259;SDS011;26993;48.958;9.330;2022-11-20T02:28:36;33.43;;;16.10;;
41259;SDS011;26993;48.958;9.330;2022-11-20T02:31:23;30.50;;;15.33;;
41259;SDS011;26993;48.958;9.330;2022-11-20T02:34:09;31.67;;;15.63;;
41259;SDS011;26993;48.958;9.330;2022-11-20T02:36:56;30.47;;;14.70;;
41259;SDS011;26993;48.958;9.330;2022-11-20T02:39:44;25.17;;;13.47;;
41259;SDS011;26993;48.958;9.330;2022-11-20T02:42:35;28.00;;;13.57;;
41259;SDS011;26993;48.958;9.330;2022-11-20T02:45:22;23.40;;;13.20;;
41259;SDS011;26993;48.958;9.330;2022-11-20T02:48:09;23.00;;;12.30;;
41259;SDS011;26993;48.958;9.330;2022-11-20T02:50:56;23.03;;;12.13;;
41259;SDS011;26993;48.958;9.330;2022-11-20T02:53:42;20.27;;;11.33;;
41259;SDS011;26993;48.958;9.330;2022-11-20T02:56:29;21.37;;;11.67;;
41259;SDS011;26993;48.958;9.330;2022-11-20T02:59:18;19.90;;;11.77;;
41259;SDS011;26993;48.958;9.330;2022-11-20T03:02:04;17.30;;;11.47;;
41259;SDS011;26993;48.958;9.330;2022-11-20T03:04:51;18.73;;;10.90;;
41259;SDS011;26993;48.958;9.330;2022-11-20T03:07:37;19.60;;;11.33;;
41259;SDS011;26993;48.958;9.330;2022-11-20T03:10:24;18.60;;;11.33;;
41259;SDS011;26993;48.958;9.330;2022-11-20T03:13:11;17.83;;;10.37;;
41259;SDS011;26993;48.958;9.330;2022-11-20T03:16:03;18.97;;;11.30;;
41259;SDS011;26993;48.958;9.330;2022-11-20T03:18:51;17.27;;;10.67;;
41259;SDS011;26993;48.958;9.330;2022-11-20T03:21:38;18.27;;;10.67;;
41259;SDS011;26993;48.958;9.330;2022-11-20T03:24:26;19.00;;;10.57;;
41259;SDS011;26993;48.958;9.330;2022-11-20T03:27:12;15.20;;;9.90;;
41259;SDS011;26993;48.958;9.330;2022-11-20T03:29:59;14.67;;;9.73;;
41259;SDS011;26993;48.958;9.330;2022-11-20T03:32:47;14.83;;;9.30;;
41259;SDS011;26993;48.958;9.330;2022-11-20T03:35:34;16.63;;;9.93;;
41259;SDS011;26993;48.958;9.330;2022-11-20T03:38:21;14.07;;;7.90;;
41259;SDS011;26993;48.958;9.330;2022-11-20T03:41:08;14.30;;;8.27;;
41259;SDS011;26993;48.958;9.330;2022-11-20T03:43:57;10.13;;;7.00;;
41259;SDS011;26993;48.958;9.330;2022-11-20T03:46:45;9.27;;;6.07;;
41259;SDS011;26993;48.958;9.330;2022-11-20T03:49:33;8.20;;;5.40;;
41259;SDS011;26993;48.958;9.330;2022-11-20T03:52:20;11.07;;;5.40;;
41259;SDS011;26993;48.958;9.330;2022-11-20T03:55:07;8.03;;;4.90;;
41259;SDS011;26993;48.958;9.330;2022-11-20T03:57:54;8.57;;;5.20;;
41259;SDS011;26993;48.958;9.330;2022-11-20T04:00:41;7.70;;;5.00;;
41259;SDS011;26993;48.958;9.330;2022-11-20T04:03:28;6.60;;;4.40;;
41259;SDS011;26993;48.958;9.330;2022-11-20T04:06:17;7.93;;;4.73;;
41259;SDS011;26993;48.958;9.330;2022-11-20T04:09:05;9.20;;;4.77;;
41259;SDS011;26993;48.958;9.330;2022-11-20T04:11:52;6.70;;;4.70;;
41259;SDS011;26993;48.958;9.330;2022-11-20T04:14:39;6.40;;;4.50;;
41259;SDS011;26993;48.958;9.330;2022-11-20T04:17:25;9.13;;;4.70;;
41259;SDS011;26993;48.958;9.330;2022-11-20T04:20:12;6.10;;;4.10;;
41259;SDS011;26993;48.958;9.330;2022-11-20T04:23:01;10.73;;;4.93;;
41259;SDS011;26993;48.958;9.330;2022-11-20T04:25:47;6.87;;;3.90;;
41259;SDS011;26993;48.958;9.330;2022-11-20T04:28:34;6.53;;;4.03;;
41259;SDS011;26993;48.958;9.330;2022-11-20T04:31:22;9.43;;;4.40;;
41259;SDS011;26993;48.958;9.330;2022-11-20T04:34:10;6.40;;;4.60;;
41259;SDS011;26993;48.958;9.330;2022-11-20T04:36:57;5.63;;;4.40;;
41259;SDS011;26993;48.958;9.330;2022-11-20T04:39:45;6.47;;;4.20;;
41259;SDS011;26993;48.958;9.330;2022-11-20T04:42:32;6.73;;;4.20;;
41259;SDS011;26993;48.958;9.330;2022-11-20T04:45:19;7.87;;;4.33;;
41259;SDS011;26993;48.958;9.330;2022-11-20T04:48:05;6.30;;;4.30;;
41259;SDS011;26993;48.958;9.330;2022-11-20T04:50:52;8.30;;;4.83;;
41259;SDS011;26993;48.958;9.330;2022-11-20T04:53:39;6.50;;;4.37;;
41259;SDS011;26993;48.958;9.330;2022-11-20T04:56:27;10.00;;;4.60;;
41259;SDS011;26993;48.958;9.330;2022-11-20T04:59:14;5.80;;;4.40;;
41259;SDS011;26993;48.958;9.330;2022-11-20T05:02:01;6.80;;;4.40;;
41259;SDS011;26993;48.958;9.330;2022-11-20T05:04:47;7.17;;;4.07;;
41259;SDS011;26993;48.958;9.330;2022-11-20T05:07:34;7.13;;;4.23;;
41259;SDS011;26993;48.958;9.330;2022-11-20T05:10:20;6.73;;;4.60;;
41259;SDS011;26993;48.958;9.330;2022-11-20T05:13:08;7.07;;;4.60;;
41259;SDS011;26993;48.958;9.330;2022-11-20T05:15:55;5.53;;;4.37;;
41259;SDS011;26993;48.958;9.330;2022-11-20T05:18:46;7.53;;;4.50;;
41259;SDS011;26993;48.958;9.330;2022-11-20T05:21:33;6.27;;;4.00;;
41259;SDS011;26993;48.958;9.330;2022-11-20T05:24:20;5.53;;;3.97;;
41259;SDS011;26993;48.958;9.330;2022-11-20T05:27:07;5.70;;;4.20;;
41259;SDS011;26993;48.958;9.330;2022-11-20T05:29:55;5.03;;;3.87;;
41259;SDS011;26993;48.958;9.330;2022-11-20T05:32:41;7.27;;;4.30;;
41259;SDS011;26993;48.958;9.330;2022-11-20T05:35:28;5.93;;;4.13;;
41259;SDS011;26993;48.958;9.330;2022-11-20T05:38:15;9.10;;;3.73;;
41259;SDS011;26993;48.958;9.330;2022-11-20T05:41:03;9.00;;;4.43;;
41259;SDS011;26993;48.958;9.330;2022-11-20T05:43:50;6.57;;;4.20;;
41259;SDS011;26993;48.958;9.330;2022-11-20T05:46:39;5.67;;;4.00;;
41259;SDS011;26993;48.958;9.330;2022-11-20T05:49:25;8.87;;;4.03;;
41259;SDS011;26993;48.958;9.330;2022-11-20T05:52:12;5.10;;;3.90;;
41259;SDS011;26993;48.958;9.330;2022-11-20T05:54:58;6.73;;;3.93;;
41259;SDS011;26993;48.958;9.330;2022-11-20T05:57:45;5.93;;;4.13;;
41259;SDS011;26993;48.958;9.330;2022-11-20T06:00:32;6.37;;;4.10;;
41259;SDS011;26993;48.958;9.330;2022-11-20T06:03:20;6.47;;;3.83;;
41259;SDS011;26993;48.958;9.330;2022-11-20T06:06:07;8.07;;;4.17;;
41259;SDS011;26993;48.958;9.330;2022-11-20T06:08:54;6.90;;;4.53;;
41259;SDS011;26993;48.958;9.330;2022-11-20T06:11:41;5.33;;;4.07;;
41259;SDS011;26993;48.958;9.330;2022-11-20T06:14:28;6.07;;;4.17;;
41259;SDS011;26993;48.958;9.330;2022-11-20T06:17:14;6.63;;;4.20;;
41259;SDS011;26993;48.958;9.330;2022-11-20T06:20:02;7.60;;;4.00;;
41259;SDS011;26993;48.958;9.330;2022-11-20T06:22:50;5.80;;;4.27;;
41259;SDS011;26993;48.958;9.330;2022-11-20T06:25:37;8.23;;;4.43;;
41259;SDS011;26993;48.958;9.330;2022-11-20T06:28:24;6.63;;;4.13;;
41259;SDS011;26993;48.958;9.330;2022-11-20T06:31:11;7.17;;;4.03;;
41259;SDS011;26993;48.958;9.330;2022-11-20T06:33:59;8.87;;;4.47;;
41259;SDS011;26993;48.958;9.330;2022-11-20T06:36:47;8.30;;;4.80;;
41259;SDS011;26993;48.958;9.330;2022-11-20T06:39:34;5.83;;;4.20;;
41259;SDS011;26993;48.958;9.330;2022-11-20T06:42:20;5.63;;;4.13;;
41259;SDS011;26993;48.958;9.330;2022-11-20T06:45:07;9.17;;;4.17;;
41259;SDS011;26993;48.958;9.330;2022-11-20T06:47:56;4.77;;;3.73;;
41259;SDS011;26993;48.958;9.330;2022-11-20T06:50:43;7.33;;;3.70;;
41259;SDS011;26993;48.958;9.330;2022-11-20T06:53:31;9.30;;;4.10;;
41259;SDS011;26993;48.958;9.330;2022-11-20T06:56:18;5.00;;;4.03;;
41259;SDS011;26993;48.958;9.330;2022-11-20T06:59:05;5.10;;;3.70;;
41259;SDS011;26993;48.958;9.330;2022-11-20T07:01:52;6.13;;;3.53;;
41259;SDS011;26993;48.958;9.330;2022-11-20T07:04:39;5.73;;;3.77;;
41259;SDS011;26993;48.958;9.330;2022-11-20T07:07:25;6.73;;;3.50;;
41259;SDS011;26993;48.958;9.330;2022-11-20T07:10:13;5.07;;;3.70;;
41259;SDS011;26993;48.958;9.330;2022-11-20T07:13:01;6.57;;;3.83;;
41259;SDS011;26993;48.958;9.330;2022-11-20T07:15:47;7.33;;;4.03;;
41259;SDS011;26993;48.958;9.330;2022-11-20T07:18:34;11.40;;;4.53;;
41259;SDS011;26993;48.958;9.330;2022-11-20T07:21:21;7.27;;;4.80;;
41259;SDS011;26993;48.958;9.330;2022-11-20T07:24:08;8.33;;;5.20;;
41259;SDS011;26993;48.958;9.330;2022-11-20T07:26:56;4.70;;;3.83;;
41259;SDS011;26993;48.958;9.330;2022-11-20T07:29:42;6.63;;;3.80;;
41259;SDS011;26993;48.958;9.330;2022-11-20T07:32:29;5.13;;;3.53;;
41259;SDS011;26993;48.958;9.330;2022-11-20T07:35:16;6.60;;;4.13;;
41259;SDS011;26993;48.958;9.330;2022-11-20T07:38:03;6.20;;;3.97;;
41259;SDS011;26993;48.958;9.330;2022-11-20T07:40:53;7.13;;;3.97;;
41259;SDS011;26993;48.958;9.330;2022-11-20T07:43:41;5.97;;;4.10;;
41259;SDS011;26993;48.958;9.330;2022-11-20T07:46:28;6.80;;;3.90;;
41259;SDS011;26993;48.958;9.330;2022-11-20T07:49:15;5.77;;;3.50;;
41259;SDS011;26993;48.958;9.330;2022-11-20T07:52:01;4.20;;;3.17;;
41259;SDS011;26993;48.958;9.330;2022-11-20T07:54:48;5.17;;;3.47;;
41259;SDS011;26993;48.958;9.330;2022-11-20T07:57:35;5.00;;;3.47;;
41259;SDS011;26993;48.958;9.330;2022-11-20T08:00:23;4.60;;;3.67;;
41259;SDS011;26993;48.958;9.330;2022-11-20T08:03:10;4.33;;;3.13;;
41259;SDS011;26993;48.958;9.330;2022-11-20T08:05:58;7.20;;;3.50;;
41259;SDS011;26993;48.958;9.330;2022-11-20T08:08:45;4.53;;;3.73;;
41259;SDS011;26993;48.958;9.330;2022-11-20T08:11:32;6.40;;;3.37;;
41259;SDS011;26993;48.958;9.330;2022-11-20T08:14:36;4.73;;;3.40;;
41259;SDS011;26993;48.958;9.330;2022-11-20T08:17:24;6.67;;;3.90;;
41259;SDS011;26993;48.958;9.330;2022-11-20T08:20:10;4.10;;;3.20;;
41259;SDS011;26993;48.958;9.330;2022-11-20T08:22:58;5.33;;;3.60;;
41259;SDS011;26993;48.958;9.330;2022-11-20T08:25:48;4.77;;;3.40;;
41259;SDS011;26993;48.958;9.330;2022-11-20T08:28:35;6.07;;;3.87;;
41259;SDS011;26993;48.958;9.330;2022-11-20T08:31:22;3.93;;;3.13;;
41259;SDS011;26993;48.958;9.330;2022-11-20T08:34:11;5.13;;;3.70;;
41259;SDS011;26993;48.958;9.330;2022-11-20T08:36:58;6.87;;;3.30;;
41259;SDS011;26993;48.958;9.330;2022-11-20T08:39:44;5.87;;;3.90;;
41259;SDS011;26993;48.958;9.330;2022-11-20T08:42:31;4.97;;;3.43;;
41259;SDS011;26993;48.958;9.330;2022-11-20T08:45:18;5.70;;;3.90;;
41259;SDS011;26993;48.958;9.330;2022-11-20T08:48:05;5.53;;;3.53;;
41259;SDS011;26993;48.958;9.330;2022-11-20T08:50:53;5.10;;;3.23;;
41259;SDS011;26993;48.958;9.330;2022-11-20T08:53:44;5.87;;;3.37;;
41259;SDS011;26993;48.958;9.330;2022-11-20T08:56:31;6.03;;;3.20;;
41259;SDS011;26993;48.958;9.330;2022-11-20T08:59:18;5.27;;;3.20;;
41259;SDS011;26993;48.958;9.330;2022-11-20T09:02:05;5.13;;;3.30;;
41259;SDS011;26993;48.958;9.330;2022-11-20T09:04:51;6.30;;;3.17;;
41259;SDS011;26993;48.958;9.330;2022-11-20T09:07:40;4.40;;;3.27;;
41259;SDS011;26993;48.958;9.330;2022-11-20T09:10:27;5.53;;;3.60;;
41259;SDS011;26993;48.958;9.330;2022-11-20T09:13:13;7.27;;;4.33;;
41259;SDS011;26993;48.958;9.330;2022-11-20T09:16:01;7.90;;;3.83;;
41259;SDS011;26993;48.958;9.330;2022-11-20T09:18:49;6.60;;;4.60;;
41259;SDS011;26993;48.958;9.330;2022-11-20T09:21:36;7.83;;;4.70;;
41259;SDS011;26993;48.958;9.330;2022-11-20T09:24:25;6.20;;;4.43;;
41259;SDS011;26993;48.958;9.330;2022-11-20T09:27:11;5.80;;;3.40;;
41259;SDS011;26993;48.958;9.330;2022-11-20T09:29:58;4.57;;;3.50;;
41259;SDS011;26993;48.958;9.330;2022-11-20T09:32:45;6.43;;;3.50;;
41259;SDS011;26993;48.958;9.330;2022-11-20T09:35:31;3.73;;;3.17;;
41259;SDS011;26993;48.958;9.330;2022-11-20T09:38:18;4.33;;;3.40;;
41259;SDS011;26993;48.958;9.330;2022-11-20T09:41:13;22.87;;;10.87;;
41259;SDS011;26993;48.958;9.330;2022-11-20T09:44:15;15.20;;;8.57;;
41259;SDS011;26993;48.958;9.330;2022-11-20T09:47:15;16.27;;;8.70;;
41259;SDS011;26993;48.958;9.330;2022-11-20T09:50:14;12.53;;;8.83;;
41259;SDS011;26993;48.958;9.330;2022-11-20T09:53:13;8.37;;;5.97;;
41259;SDS011;26993;48.958;9.330;2022-11-20T09:56:09;10.37;;;5.37;;
41259;SDS011;26993;48.958;9.330;2022-11-20T09:58:58;8.90;;;5.93;;
41259;SDS011;26993;48.958;9.330;2022-11-20T10:01:48;8.87;;;6.53;;
41259;SDS011;26993;48.958;9.330;2022-11-20T10:04:35;8.93;;;5.63;;
41259;SDS011;26993;48.958;9.330;2022-11-20T10:07:30;7.83;;;5.17;;
41259;SDS011;26993;48.958;9.330;2022-11-20T10:10:27;6.60;;;4.13;;
41259;SDS011;26993;48.958;9.330;2022-11-20T10:13:23;6.70;;;3.40;;
41259;SDS011;26993;48.958;9.330;2022-11-20T10:16:20;6.33;;;2.83;;
41259;SDS011;26993;48.958;9.330;2022-11-20T10:19:18;7.37;;;2.73;;
41259;SDS011;26993;48.958;9.330;2022-11-20T10:22:23;4.20;;;2.20;;
41259;SDS011;26993;48.958;9.330;2022-11-20T10:25:22;3.20;;;2.37;;
41259;SDS011;26993;48.958;9.330;2022-11-20T10:28:15;4.70;;;3.20;;
41259;SDS011;26993;48.958;9.330;2022-11-20T10:31:17;6.07;;;2.93;;
41259;SDS011;26993;48.958;9.330;2022-11-20T10:34:18;4.83;;;2.83;;
41259;SDS011;26993;48.958;9.330;2022-11-20T10:37:09;3.60;;;2.50;;
41259;SDS011;26993;48.958;9.330;2022-11-20T10:40:00;3.60;;;2.13;;
41259;SDS011;26993;48.958;9.330;2022-11-20T10:42:52;5.37;;;4.03;;
41259;SDS011;26993;48.958;9.330;2022-11-20T10:45:46;4.80;;;2.90;;
41259;SDS011;26993;48.958;9.330;2022-11-20T10:48:39;3.83;;;2.50;;
41259;SDS011;26993;48.958;9.330;2022-11-20T10:51:31;5.67;;;2.50;;
41259;SDS011;26993;48.958;9.330;2022-11-20T10:54:25;4.50;;;2.53;;
41259;SDS011;26993;48.958;9.330;2022-11-20T10:57:22;3.20;;;2.20;;
41259;SDS011;26993;48.958;9.330;2022-11-20T11:00:17;2.87;;;2.20;;
41259;SDS011;26993;48.958;9.330;2022-11-20T11:03:10;4.17;;;2.10;;
41259;SDS011;26993;48.958;9.330;2022-11-20T11:06:07;3.57;;;1.70;;
41259;SDS011;26993;48.958;9.330;2022-11-20T11:09:02;2.77;;;1.90;;
41259;SDS011;26993;48.958;9.330;2022-11-20T11:11:56;4.07;;;1.80;;
41259;SDS011;26993;48.958;9.330;2022-11-20T11:14:44;3.43;;;2.10;;
41259;SDS011;26993;48.958;9.330;2022-11-20T11:17:33;4.70;;;2.60;;
41259;SDS011;26993;48.958;9.330;2022-11-20T11:20:22;4.87;;;2.50;;
41259;SDS011;26993;48.958;9.330;2022-11-20T11:23:10;3.20;;;2.50;;
41259;SDS011;26993;48.958;9.330;2022-11-20T11:26:18;4.30;;;2.60;;
41259;SDS011;26993;48.958;9.330;2022-11-20T11:29:15;3.50;;;2.70;;
41259;SDS011;26993;48.958;9.330;2022-11-20T11:32:04;6.53;;;3.30;;
41259;SDS011;26993;48.958;9.330;2022-11-20T11:34:59;5.40;;;3.30;;
41259;SDS011;26993;48.958;9.330;2022-11-20T11:37:48;5.47;;;3.83;;
41259;SDS011;26993;48.958;9.330;2022-11-20T11:40:36;4.80;;;3.10;;
41259;SDS011;26993;48.958;9.330;2022-11-20T11:43:26;6.17;;;3.37;;
41259;SDS011;26993;48.958;9.330;2022-11-20T11:46:34;6.67;;;4.13;;
41259;SDS011;26993;48.958;9.330;2022-11-20T11:49:23;9.17;;;3.70;;
41259;SDS011;26993;48.958;9.330;2022-11-20T11:52:11;6.43;;;3.67;;
41259;SDS011;26993;48.958;9.330;2022-11-20T11:55:04;8.73;;;4.27;;
41259;SDS011;26993;48.958;9.330;2022-11-20T11:57:57;7.87;;;4.53;;
41259;SDS011;26993;48.958;9.330;2022-11-20T12:00:54;5.20;;;3.00;;
41259;SDS011;26993;48.958;9.330;2022-11-20T12:03:50;4.43;;;3.20;;
41259;SDS011;26993;48.958;9.330;2022-11-20T12:06:42;6.10;;;3.50;;
41259;SDS011;26993;48.958;9.330;2022-11-20T12:09:34;9.47;;;4.13;;
41259;SDS011;26993;48.958;9.330;2022-11-20T12:12:31;12.17;;;3.43;;
41259;SDS011;26993;48.958;9.330;2022-11-20T12:15:25;6.30;;;2.17;;
41259;SDS011;26993;48.958;9.330;2022-11-20T12:18:16;5.07;;;2.07;;
41259;SDS011;26993;48.958;9.330;2022-11-20T12:21:07;4.53;;;2.00;;
41259;SDS011;26993;48.958;9.330;2022-11-20T12:24:12;3.90;;;2.00;;
41259;SDS011;26993;48.958;9.330;2022-11-20T12:30:29;4.10;;;1.90;;
41259;SDS011;26993;48.958;9.330;2022-11-20T12:33:32;3.13;;;1.80;;
41259;SDS011;26993;48.958;9.330;2022-11-20T12:36:40;6.03;;;2.70;;
41259;SDS011;26993;48.958;9.330;2022-11-20T12:39:34;6.30;;;2.13;;
41259;SDS011;26993;48.958;9.330;2022-11-20T12:42:26;6.37;;;2.67;;
41259;SDS011;26993;48.958;9.330;2022-11-20T12:45:50;9.20;;;2.40;;
41259;SDS011;26993;48.958;9.330;2022-11-20T12:48:51;16.20;;;6.07;;
41259;SDS011;26993;48.958;9.330;2022-11-20T12:51:48;10.73;;;4.83;;
41259;SDS011;26993;48.958;9.330;2022-11-20T12:54:51;5.10;;;3.23;;
41259;SDS011;26993;48.958;9.330;2022-11-20T12:57:49;11.20;;;4.40;;
41259;SDS011;26993;48.958;9.330;2022-11-20T13:00:41;5.87;;;2.50;;
41259;SDS011;26993;48.958;9.330;2022-11-20T13:03:47;4.10;;;2.30;;
41259;SDS011;26993;48.958;9.330;2022-11-20T13:06:40;6.03;;;3.60;;
41259;SDS011;26993;48.958;9.330;2022-11-20T13:09:28;6.93;;;1.70;;
41259;SDS011;26993;48.958;9.330;2022-11-20T13:12:17;7.17;;;2.87;;
41259;SDS011;26993;48.958;9.330;2022-11-20T13:15:18;5.70;;;2.00;;
41259;SDS011;26993;48.958;9.330;2022-11-20T13:18:21;6.97;;;2.20;;
41259;SDS011;26993;48.958;9.330;2022-11-20T13:21:17;4.00;;;1.70;;
41259;SDS011;26993;48.958;9.330;2022-11-20T13:24:05;4.37;;;1.50;;
41259;SDS011;26993;48.958;9.330;2022-11-20T13:30:12;3.80;;;1.40;;
41259;SDS011;26993;48.958;9.330;2022-11-20T13:33:03;3.53;;;1.70;;
41259;SDS011;26993;48.958;9.330;2022-11-20T13:35:57;4.33;;;1.80;;
41259;SDS011;26993;48.958;9.330;2022-11-20T13:38:48;2.70;;;1.80;;
41259;SDS011;26993;48.958;9.330;2022-11-20T13:41:36;4.30;;;1.70;;
41259;SDS011;26993;48.958;9.330;2022-11-20T13:44:26;3.83;;;1.40;;
41259;SDS011;26993;48.958;9.330;2022-11-20T13:47:20;3.40;;;1.20;;
41259;SDS011;26993;48.958;9.330;2022-11-20T13:50:08;4.97;;;1.33;;
41259;SDS011;26993;48.958;9.330;2022-11-20T13:52:55;6.03;;;1.23;;
41259;SDS011;26993;48.958;9.330;2022-11-20T13:55:53;4.50;;;1.50;;
41259;SDS011;26993;48.958;9.330;2022-11-20T13:58:48;3.50;;;1.50;;
41259;SDS011;26993;48.958;9.330;2022-11-20T14:01:42;9.53;;;2.30;;
41259;SDS011;26993;48.958;9.330;2022-11-20T14:04:33;13.17;;;3.90;;
41259;SDS011;26993;48.958;9.330;2022-11-20T14:07:24;8.73;;;4.30;;
41259;SDS011;26993;48.958;9.330;2022-11-20T14:10:19;5.93;;;2.87;;
41259;SDS011;26993;48.958;9.330;2022-11-20T14:13:12;2.90;;;1.93;;
41259;SDS011;26993;48.958;9.330;2022-11-20T14:16:04;5.43;;;1.87;;
41259;SDS011;26993;48.958;9.330;2022-11-20T14:18:51;4.43;;;1.70;;
41259;SDS011;26993;48.958;9.330;2022-11-20T14:21:38;3.13;;;1.27;;
41259;SDS011;26993;48.958;9.330;2022-11-20T14:24:25;6.60;;;1.97;;
41259;SDS011;26993;48.958;9.330;2022-11-20T14:27:13;4.53;;;1.50;;
41259;SDS011;26993;48.958;9.330;2022-11-20T14:30:03;4.53;;;1.90;;
41259;SDS011;26993;48.958;9.330;2022-11-20T14:32:51;2.50;;;1.10;;
41259;SDS011;26993;48.958;9.330;2022-11-20T14:35:45;2.77;;;1.10;;
41259;SDS011;26993;48.958;9.330;2022-11-20T14:38:33;1.80;;;0.87;;
41259;SDS011;26993;48.958;9.330;2022-11-20T14:41:20;2.30;;;1.00;;
41259;SDS011;26993;48.958;9.330;2022-11-20T14:44:08;1.83;;;1.00;;
41259;SDS011;26993;48.958;9.330;2022-11-20T14:46:57;2.37;;;1.10;;
41259;SDS011;26993;48.958;9.330;2022-11-20T14:49:46;2.03;;;1.20;;
41259;SDS011;26993;48.958;9.330;2022-11-20T14:52:34;2.90;;;1.00;;
41259;SDS011;26993;48.958;9.330;2022-11-20T14:55:30;2.23;;;1.27;;
41259;SDS011;26993;48.958;9.330;2022-11-20T14:58:20;3.23;;;1.00;;
41259;SDS011;26993;48.958;9.330;2022-11-20T15:01:12;5.73;;;2.87;;
41259;SDS011;26993;48.958;9.330;2022-11-20T15:04:02;4.80;;;1.43;;
41259;SDS011;26993;48.958;9.330;2022-11-20T15:06:53;2.07;;;1.30;;
41259;SDS011;26993;48.958;9.330;2022-11-20T15:09:42;6.73;;;1.77;;
41259;SDS011;26993;48.958;9.330;2022-11-20T15:12:29;4.37;;;1.57;;
41259;SDS011;26993;48.958;9.330;2022-11-20T15:15:18;5.73;;;1.60;;
41259;SDS011;26993;48.958;9.330;2022-11-20T15:18:09;3.97;;;1.53;;
41259;SDS011;26993;48.958;9.330;2022-11-20T15:21:00;4.00;;;1.60;;
41259;SDS011;26993;48.958;9.330;2022-11-20T15:23:49;3.07;;;1.50;;
41259;SDS011;26993;48.958;9.330;2022-11-20T15:26:36;2.30;;;1.40;;
41259;SDS011;26993;48.958;9.330;2022-11-20T15:29:25;4.13;;;1.57;;
41259;SDS011;26993;48.958;9.330;2022-11-20T15:32:12;3.37;;;1.50;;
41259;SDS011;26993;48.958;9.330;2022-11-20T15:34:58;2.97;;;1.33;;
41259;SDS011;26993;48.958;9.330;2022-11-20T15:37:46;2.43;;;1.20;;
41259;SDS011;26993;48.958;9.330;2022-11-20T15:40:33;2.37;;;1.23;;
41259;SDS011;26993;48.958;9.330;2022-11-20T15:43:20;4.53;;;1.60;;
41259;SDS011;26993;48.958;9.330;2022-11-20T15:46:09;4.37;;;1.50;;
41259;SDS011;26993;48.958;9.330;2022-11-20T15:48:58;2.53;;;1.20;;
41259;SDS011;26993;48.958;9.330;2022-11-20T15:51:47;4.47;;;1.30;;
41259;SDS011;26993;48.958;9.330;2022-11-20T15:54:36;2.80;;;1.40;;
41259;SDS011;26993;48.958;9.330;2022-11-20T15:57:23;4.90;;;3.60;;
41259;SDS011;26993;48.958;9.330;2022-11-20T16:00:10;3.67;;;1.50;;
41259;SDS011;26993;48.958;9.330;2022-11-20T16:02:58;4.33;;;1.37;;
41259;SDS011;26993;48.958;9.330;2022-11-20T16:05:45;5.13;;;1.20;;
41259;SDS011;26993;48.958;9.330;2022-11-20T16:08:31;5.67;;;3.30;;
41259;SDS011;26993;48.958;9.330;2022-11-20T16:11:19;10.30;;;5.73;;
41259;SDS011;26993;48.958;9.330;2022-11-20T16:14:09;3.53;;;1.70;;
41259;SDS011;26993;48.958;9.330;2022-11-20T16:17:17;3.10;;;1.87;;
41259;SDS011;26993;48.958;9.330;2022-11-20T16:20:24;2.67;;;1.57;;
41259;SDS011;26993;48.958;9.330;2022-11-20T16:23:11;4.13;;;2.83;;
41259;SDS011;26993;48.958;9.330;2022-11-20T16:25:58;4.83;;;2.57;;
41259;SDS011;26993;48.958;9.330;2022-11-20T16:28:46;4.73;;;2.60;;
41259;SDS011;26993;48.958;9.330;2022-11-20T16:31:33;5.13;;;2.50;;
41259;SDS011;26993;48.958;9.330;2022-11-20T16:34:20;6.63;;;3.63;;
41259;SDS011;26993;48.958;9.330;2022-11-20T16:37:07;7.50;;;4.50;;
41259;SDS011;26993;48.958;9.330;2022-11-20T16:39:53;4.73;;;3.37;;
41259;SDS011;26993;48.958;9.330;2022-11-20T16:42:41;13.50;;;8.00;;
41259;SDS011;26993;48.958;9.330;2022-11-20T16:45:29;4.17;;;2.70;;
41259;SDS011;26993;48.958;9.330;2022-11-20T16:48:16;5.43;;;3.07;;
41259;SDS011;26993;48.958;9.330;2022-11-20T16:51:02;5.47;;;3.40;;
41259;SDS011;26993;48.958;9.330;2022-11-20T16:53:49;6.40;;;2.57;;
41259;SDS011;26993;48.958;9.330;2022-11-20T16:56:37;7.37;;;2.83;;
41259;SDS011;26993;48.958;9.330;2022-11-20T16:59:29;3.77;;;2.27;;